Time;durP1;ratioP1;P1;durP2;ratioP2;P2;SDS_P1;SDS_P2;PMS_P1;PMS_P2;Temp;Humidity;BMP_temperature;BMP_pressure;BME280_temperature;BME280_humidity;BME280_pressure;Samples;Min_cycle;Max_cycle;Signal;HPM_P1;HPM_P2
2021/11/13 00:01:07;;;;;;;;;23.75;20.00;;;;;12.55;74.33;100729.94;5019391;28;45675;-87
2021/11/13 00:03:33;;;;;;;;;24.75;23.00;;;;;12.61;74.51;100747.88;5001885;28;46549;-89
2021/11/13 00:09:20;;;;;;;;;22.00;18.00;;;;;12.70;74.67;100734.97;5022623;28;45596;-88
2021/11/13 00:11:45;;;;;;;;;0.00;0.00;;;;;12.69;74.30;100726.25;5023949;28;45880;-82
2021/11/13 00:14:20;;;;;;;;;20.00;18.00;;;;;12.69;74.49;100725.41;5024900;28;45829;-91
2021/11/13 00:16:46;;;;;;;;;20.00;17.50;;;;;12.73;74.57;100730.31;5013777;28;46683;-84
2021/11/13 00:19:12;;;;;;;;;25.25;21.75;;;;;12.65;74.37;100716.94;5032990;28;45791;-86
2021/11/13 00:21:38;;;;;;;;;26.25;22.75;;;;;12.67;74.09;100712.41;5017466;28;45290;-87
2021/11/13 00:24:04;;;;;;;;;24.00;20.75;;;;;12.73;74.22;100713.72;5015210;28;46674;-88
2021/11/13 00:26:29;;;;;;;;;21.25;18.25;;;;;12.82;74.36;100740.13;5030913;28;46154;-85
2021/11/13 00:28:55;;;;;;;;;25.25;19.25;;;;;12.72;74.16;100715.50;5027927;28;45775;-86
2021/11/13 00:31:20;;;;;;;;;20.50;17.50;;;;;12.78;74.42;100714.19;5027209;28;45450;-88
2021/11/13 00:33:45;;;;;;;;;22.50;18.75;;;;;12.78;74.26;100724.69;5028736;28;46493;-83
2021/11/13 00:39:33;;;;;;;;;17.75;16.25;;;;;12.65;74.18;100684.53;5022868;28;45719;-83
2021/11/13 00:41:59;;;;;;;;;23.25;18.25;;;;;12.68;73.95;100694.84;5028974;28;45481;-85
2021/11/13 00:44:24;;;;;;;;;22.75;17.50;;;;;12.84;73.88;100716.34;5026557;28;45485;-84
2021/11/13 00:46:50;;;;;;;;;23.00;19.75;;;;;12.82;73.82;100721.72;5022916;28;45545;-85
2021/11/13 00:49:17;;;;;;;;;22.25;19.25;;;;;12.83;73.48;100718.13;5023403;28;45576;-80
2021/11/13 00:55:05;;;;;;;;;22.50;18.75;;;;;12.85;73.69;100713.56;5034146;28;45267;-82
2021/11/13 00:57:31;;;;;;;;;24.75;21.00;;;;;12.81;73.96;100716.56;5031794;28;45523;-84
2021/11/13 00:59:56;;;;;;;;;22.50;20.25;;;;;12.79;73.71;100710.59;5027586;28;45513;-83
2021/11/13 01:02:21;;;;;;;;;24.25;18.00;;;;;12.75;73.93;100703.88;5031569;28;45540;-87
2021/11/13 01:04:47;;;;;;;;;22.50;20.75;;;;;12.89;73.96;100728.16;5035297;28;45743;-85
2021/11/13 01:07:12;;;;;;;;;24.00;18.50;;;;;12.81;73.56;100703.41;5034063;28;46055;-86
2021/11/13 01:09:38;;;;;;;;;20.50;17.25;;;;;12.71;73.83;100692.78;5021623;28;45666;-84
2021/11/13 01:12:04;;;;;;;;;21.25;19.75;;;;;12.88;74.13;100725.66;5019057;28;45604;-86
2021/11/13 01:14:29;;;;;;;;;23.75;19.00;;;;;12.83;73.67;100718.13;5018739;28;45581;-82
2021/11/13 01:16:55;;;;;;;;;26.50;22.25;;;;;12.83;73.95;100710.25;5021979;28;45750;-84
2021/11/13 01:19:21;;;;;;;;;25.25;20.25;;;;;12.76;73.70;100706.41;5022056;28;45678;-82
2021/11/13 01:25:09;;;;;;;;;23.25;18.25;;;;;12.71;74.06;100708.56;5020195;28;46141;-81
2021/11/13 01:27:34;;;;;;;;;28.00;21.50;;;;;12.63;74.29;100689.94;5022722;28;46133;-82
2021/11/13 01:30:00;;;;;;;;;19.75;18.00;;;;;12.74;74.10;100724.09;5022784;28;45576;-81
2021/11/13 01:32:26;;;;;;;;;18.25;17.25;;;;;12.75;74.40;100720.50;5019391;28;45576;-78
2021/11/13 01:34:53;;;;;;;;;25.75;21.25;;;;;12.69;74.50;100717.50;5001060;28;47332;-90
2021/11/13 01:37:18;;;;;;;;;19.75;17.25;;;;;12.64;74.35;100717.88;5020873;28;45551;-85
2021/11/13 01:39:45;;;;;;;;;19.75;15.75;;;;;12.72;74.58;100726.00;5016753;28;45526;-79
2021/11/13 01:42:11;;;;;;;;;23.50;17.75;;;;;12.69;74.86;100722.78;5018243;28;45566;-81
2021/11/13 01:44:37;;;;;;;;;21.25;18.50;;;;;12.75;74.63;100728.38;5017222;28;45546;-82
2021/11/13 01:47:03;;;;;;;;;18.25;16.75;;;;;12.76;74.92;100734.50;5016925;28;45611;-79
2021/11/13 01:49:29;;;;;;;;;19.50;17.25;;;;;12.77;75.32;100725.66;4999631;28;45783;-82
2021/11/13 01:55:19;;;;;;;;;17.25;14.75;;;;;12.68;75.22;100706.19;5024046;28;45577;-82
2021/11/13 01:57:49;;;;;;;;;21.75;17.50;;;;;12.76;75.33;100719.56;5024613;28;45729;-83
2021/11/13 02:00:29;;;;;;;;;18.25;16.00;;;;;12.79;75.34;100710.59;5024059;28;45769;-85
2021/11/13 02:02:55;;;;;;;;;17.75;16.00;;;;;12.78;74.94;100711.56;5021672;28;45729;-83
2021/11/13 02:05:20;;;;;;;;;24.25;17.50;;;;;12.75;75.18;100703.88;5020266;28;45544;-83
2021/11/13 02:07:46;;;;;;;;;22.00;18.00;;;;;12.65;75.00;100674.03;5020787;28;46124;-83
2021/11/13 02:10:14;;;;;;;;;27.25;16.25;;;;;12.78;75.17;100706.28;5022547;28;45575;-85
2021/11/13 02:12:39;;;;;;;;;18.00;16.25;;;;;12.74;75.21;100700.41;5022186;28;45522;-88
2021/11/13 02:15:06;;;;;;;;;23.50;19.00;;;;;12.71;75.30;100699.84;5020612;28;46412;-84
2021/11/13 02:17:32;;;;;;;;;18.50;16.75;;;;;12.67;75.14;100694.00;5019689;28;46578;-85
2021/11/13 02:26:41;;;;;;;;;19.75;16.75;;;;;12.67;75.34;100680.00;4974840;28;46059;-83
2021/11/13 02:29:07;;;;;;;;;16.25;14.25;;;;;12.67;75.05;100680.84;4974574;28;45936;-82
2021/11/13 02:31:36;;;;;;;;;17.75;15.50;;;;;12.72;74.93;100689.22;4974451;28;45637;-87
2021/11/13 02:34:04;;;;;;;;;20.75;16.00;;;;;12.67;75.42;100685.28;4973734;28;45518;-85
2021/11/13 02:36:29;;;;;;;;;20.50;16.50;;;;;12.68;75.65;100706.19;4975539;28;46528;-85
2021/11/13 02:38:57;;;;;;;;;17.00;15.00;;;;;12.63;75.31;100695.19;4974099;28;46198;-86
2021/11/13 02:41:26;;;;;;;;;17.75;16.00;;;;;12.68;75.07;100694.84;4973310;28;45656;-86
2021/11/13 02:43:52;;;;;;;;;20.75;19.00;;;;;12.55;75.24;100666.03;4974970;28;45879;-84
2021/11/13 02:46:18;;;;;;;;;21.75;16.00;;;;;12.67;74.89;100682.66;4974118;28;45735;-86
2021/11/13 02:48:43;;;;;;;;;13.50;13.50;;;;;12.75;74.73;100701.25;4978761;28;45816;-89
2021/11/13 02:51:11;;;;;;;;;14.75;11.50;;;;;12.61;74.96;100673.44;4981890;28;45705;-86
2021/11/13 02:53:37;;;;;;;;;15.25;11.00;;;;;12.73;75.18;100695.31;4997955;28;45621;-85
2021/11/13 02:56:06;;;;;;;;;15.75;14.75;;;;;12.71;74.88;100690.16;5018272;28;46452;-87
2021/11/13 02:58:32;;;;;;;;;11.50;10.00;;;;;12.72;74.80;100689.22;5018079;28;46131;-82
2021/11/13 03:01:04;;;;;;;;;15.00;15.00;;;;;12.75;75.14;100690.75;5015807;28;45846;-84
2021/11/13 03:03:30;;;;;;;;;15.00;15.00;;;;;12.79;74.99;100682.53;5015109;28;45520;-85
2021/11/13 03:05:57;;;;;;;;;19.75;14.50;;;;;12.81;74.96;100693.72;5016047;28;46225;-80
2021/11/13 03:08:30;;;;;;;;;21.75;15.25;;;;;12.84;74.67;100684.78;5016759;28;46260;-84
2021/11/13 03:10:58;;;;;;;;;18.00;16.75;;;;;12.87;74.51;100695.03;5016069;28;45612;-80
2021/11/13 03:13:24;;;;;;;;;18.50;14.50;;;;;12.84;74.34;100690.88;5016300;28;45769;-82
2021/11/13 03:15:51;;;;;;;;;16.50;14.75;;;;;12.82;74.79;100687.53;5016165;28;45557;-86
2021/11/13 03:18:17;;;;;;;;;17.25;13.75;;;;;12.80;75.07;100686.81;5014338;28;45691;-81
2021/11/13 03:20:42;;;;;;;;;17.00;13.00;;;;;12.75;74.96;100678.44;4996165;28;45838;-84
2021/11/13 03:26:31;;;;;;;;;10.25;10.00;;;;;12.81;75.10;100682.38;5020115;28;46101;-84
2021/11/13 03:29:08;;;;;;;;;12.50;11.25;;;;;12.81;75.09;100685.00;5021412;28;45548;-83
2021/11/13 03:31:33;;;;;;;;;11.00;10.25;;;;;12.77;75.64;100686.22;5020541;28;45699;-79
2021/11/13 03:33:59;;;;;;;;;15.00;11.75;;;;;12.74;75.19;100683.84;5018257;28;45536;-83
2021/11/13 03:36:27;;;;;;;;;10.25;9.75;;;;;12.75;75.80;100694.22;5018400;28;47451;-86
2021/11/13 03:38:54;;;;;;;;;9.25;8.00;;;;;12.69;75.85;100678.09;5001210;28;47388;-84
2021/11/13 03:41:22;;;;;;;;;12.00;9.25;;;;;12.65;75.94;100676.66;5015010;28;45523;-82
2021/11/13 03:43:48;;;;;;;;;12.50;8.75;;;;;12.67;76.36;100678.22;5014575;28;45630;-84
2021/11/13 03:46:14;;;;;;;;;8.00;7.00;;;;;12.63;76.13;100671.53;5015717;28;46356;-84
2021/11/13 03:48:41;;;;;;;;;8.00;7.75;;;;;12.62;76.51;100683.00;4999702;28;46917;-84
2021/11/13 03:51:06;;;;;;;;;4.50;4.00;;;;;12.58;76.72;100679.75;5017600;28;45516;-81
2021/11/13 03:53:32;;;;;;;;;9.75;9.00;;;;;12.48;76.71;100668.31;5018198;28;45876;-85
2021/11/13 03:55:57;;;;;;;;;11.75;10.00;;;;;12.49;76.77;100672.59;5017391;28;46528;-82
2021/11/13 03:58:23;;;;;;;;;9.00;9.00;;;;;12.49;76.91;100675.25;4999513;28;47283;-83
2021/11/13 04:00:48;;;;;;;;;9.75;9.00;;;;;12.51;76.89;100678.59;5017985;28;45991;-83
2021/11/13 04:03:14;;;;;;;;;10.25;9.50;;;;;12.63;76.62;100682.06;5018448;28;45798;-85
2021/11/13 04:05:39;;;;;;;;;10.00;8.00;;;;;12.66;76.44;100673.91;5018321;28;45624;-84
2021/11/13 04:11:26;;;;;;;;;8.75;7.75;;;;;12.58;76.48;100666.63;5018538;28;45770;-82
2021/11/13 04:13:52;;;;;;;;;10.50;8.25;;;;;12.63;76.40;100681.22;5019339;28;45686;-87
2021/11/13 04:16:17;;;;;;;;;10.50;7.75;;;;;12.33;76.66;100629.25;5018181;28;46376;-86
2021/11/13 04:18:43;;;;;;;;;9.50;8.50;;;;;12.59;76.32;100677.97;5018202;28;46609;-86
2021/11/13 04:21:08;;;;;;;;;7.25;7.25;;;;;12.63;76.33;100678.59;5017272;28;45956;-85
2021/11/13 04:26:55;;;;;;;;;6.00;5.00;;;;;12.70;76.01;100693.75;5017580;28;45547;-84
2021/11/13 04:29:21;;;;;;;;;7.50;5.00;;;;;12.71;76.04;100684.91;5017950;28;46667;-81
2021/11/13 04:31:47;;;;;;;;;8.50;6.75;;;;;12.68;75.96;100676.44;5017561;28;45601;-85
2021/11/13 04:34:18;;;;;;;;;4.50;4.00;;;;;12.75;75.74;100688.13;5018794;28;45894;-87
2021/11/13 04:36:46;;;;;;;;;6.50;6.25;;;;;12.70;76.10;100672.72;5002459;28;46877;-87
2021/11/13 04:39:13;;;;;;;;;4.25;4.25;;;;;12.67;75.79;100664.25;5020960;28;45477;-86
2021/11/13 04:41:40;;;;;;;;;8.00;5.00;;;;;12.73;76.13;100693.53;5030424;28;45569;-83
2021/11/13 04:44:06;;;;;;;;;9.00;6.25;;;;;12.54;76.29;100659.94;5030773;28;45670;-80
2021/11/13 04:46:31;;;;;;;;;7.25;5.00;;;;;12.71;76.38;100697.22;5027737;28;46395;-80
2021/11/13 04:48:57;;;;;;;;;7.00;5.25;;;;;12.68;76.56;100693.03;5027926;28;45568;-80
2021/11/13 04:51:22;;;;;;;;;8.50;6.25;;;;;12.65;77.05;100693.28;5024021;28;45584;-85
2021/11/13 04:57:09;;;;;;;;;7.50;7.25;;;;;12.55;77.81;100693.16;5021360;28;46013;-86
2021/11/13 04:59:35;;;;;;;;;7.50;5.00;;;;;12.47;78.44;100677.13;5025971;28;45742;-83
2021/11/13 05:02:00;;;;;;;;;9.00;7.25;;;;;12.50;78.08;100682.16;5025081;28;45854;-82
2021/11/13 05:04:26;;;;;;;;;4.50;4.00;;;;;12.45;78.51;100694.84;5023972;28;45661;-83
2021/11/13 05:06:51;;;;;;;;;7.25;5.50;;;;;12.38;78.28;100687.53;5020478;28;45798;-81
2021/11/13 05:09:17;;;;;;;;;7.00;5.50;;;;;12.33;78.72;100692.31;5019158;28;45682;-87
2021/11/13 05:11:42;;;;;;;;;5.75;5.00;;;;;12.31;78.61;100689.78;5022210;28;45583;-83
2021/11/13 05:14:08;;;;;;;;;5.25;5.00;;;;;12.31;78.65;100684.53;5021264;28;45702;-84
2021/11/13 05:16:33;;;;;;;;;9.75;6.50;;;;;12.26;78.73;100685.84;5025346;28;45702;-84
2021/11/13 05:18:59;;;;;;;;;7.00;6.50;;;;;12.30;78.63;100692.56;5025125;28;45643;-86
2021/11/13 05:21:25;;;;;;;;;4.00;4.00;;;;;12.31;78.61;100679.28;5023820;28;45657;-86
2021/11/13 05:27:12;;;;;;;;;7.25;4.25;;;;;12.37;78.47;100686.69;5021924;28;45556;-84
2021/11/13 05:29:38;;;;;;;;;7.50;4.25;;;;;12.33;78.16;100673.91;5030781;28;45592;-80
2021/11/13 05:32:04;;;;;;;;;4.25;4.25;;;;;12.29;78.02;100677.75;5031806;28;44984;-80
2021/11/13 05:34:30;;;;;;;;;6.75;4.00;;;;;12.42;78.33;100696.84;5032814;28;45465;-82
2021/11/13 05:36:55;;;;;;;;;4.75;3.75;;;;;12.48;78.08;100697.22;5032305;28;45502;-78
2021/11/13 05:43:22;;;;;;;;;6.75;4.00;;;;;12.35;77.92;100680.75;5015288;28;46217;-86
2021/11/13 05:45:48;;;;;;;;;7.50;3.50;;;;;12.50;77.73;100697.09;5005431;28;45604;-81
2021/11/13 05:48:14;;;;;;;;;3.50;3.00;;;;;12.51;77.73;100701.41;5017963;28;45799;-83
2021/11/13 05:50:40;;;;;;;;;7.50;4.00;;;;;12.41;77.69;100689.94;5016994;28;45571;-83
2021/11/13 05:53:05;;;;;;;;;2.50;2.25;;;;;12.52;77.56;100706.53;5016423;28;45524;-82
2021/11/13 05:55:31;;;;;;;;;5.25;3.00;;;;;12.54;77.70;100701.16;5016365;28;45542;-80
2021/11/13 05:57:59;;;;;;;;;5.00;3.50;;;;;12.55;77.79;100697.56;5016163;28;45858;-82
2021/11/13 06:00:26;;;;;;;;;3.00;3.00;;;;;12.58;77.50;100705.22;5016985;28;46195;-82
2021/11/13 06:02:52;;;;;;;;;4.00;3.25;;;;;12.58;77.35;100706.03;4999590;28;45796;-83
2021/11/13 06:05:18;;;;;;;;;3.00;3.00;;;;;12.62;77.24;100706.66;5017354;28;45711;-82
2021/11/13 06:07:45;;;;;;;;;3.75;3.75;;;;;12.65;77.32;100710.81;5015506;28;46547;-82
2021/11/13 06:10:13;;;;;;;;;3.00;3.00;;;;;12.63;76.90;100697.84;5014693;28;46481;-86
2021/11/13 06:12:39;;;;;;;;;3.75;3.50;;;;;12.66;77.10;100709.88;5015711;28;45515;-82
2021/11/13 06:15:06;;;;;;;;;2.25;2.00;;;;;12.61;77.03;100684.81;5016467;28;45660;-81
2021/11/13 06:17:31;;;;;;;;;2.00;2.00;;;;;12.69;76.92;100699.13;5016699;28;46513;-84
2021/11/13 06:19:58;;;;;;;;;3.00;3.00;;;;;12.76;76.82;100708.19;5016816;28;45656;-80
2021/11/13 06:22:23;;;;;;;;;3.00;3.00;;;;;12.77;76.67;100709.88;5017887;28;45762;-83
2021/11/13 06:24:49;;;;;;;;;1.25;1.25;;;;;12.81;76.78;100711.31;5020405;28;45791;-79
2021/11/13 06:27:17;;;;;;;;;2.75;2.00;;;;;12.81;76.52;100706.88;5022376;28;46265;-79
2021/11/13 06:29:45;;;;;;;;;2.00;1.00;;;;;12.74;76.63;100707.50;5005005;28;46121;-77
2021/11/13 06:32:11;;;;;;;;;1.00;0.50;;;;;12.77;76.59;100721.22;5022078;28;45596;-81
2021/11/13 06:34:37;;;;;;;;;1.25;1.25;;;;;12.71;76.64;100718.25;5025899;28;45591;-82
2021/11/13 06:37:04;;;;;;;;;1.25;1.00;;;;;12.70;76.23;100711.31;5025233;28;46458;-78
2021/11/13 06:42:51;;;;;;;;;1.00;1.00;;;;;12.67;76.54;100724.69;5016087;28;45560;-79
2021/11/13 06:45:16;;;;;;;;;1.75;1.00;;;;;12.37;76.96;100684.06;5017422;28;45568;-84
2021/11/13 06:47:45;;;;;;;;;1.00;1.00;;;;;12.60;76.96;100727.81;5017002;28;46467;-82
2021/11/13 06:50:11;;;;;;;;;1.75;1.25;;;;;12.47;77.40;100713.94;4982915;28;46913;-85
2021/11/13 06:52:40;;;;;;;;;1.00;1.00;;;;;12.59;77.22;100734.00;5017510;28;45644;-87
2021/11/13 06:58:27;;;;;;;;;0.75;0.75;;;;;12.51;78.04;100731.16;5016299;28;45927;-84
2021/11/13 07:00:52;;;;;;;;;5.75;1.00;;;;;12.43;78.12;100733.53;5016252;28;46352;-84
2021/11/13 07:03:18;;;;;;;;;0.50;0.50;;;;;12.39;78.64;100731.25;5023060;28;45568;-78
2021/11/13 07:05:43;;;;;;;;;1.00;1.00;;;;;12.42;78.62;100739.72;5023364;28;45486;-79
2021/11/13 07:08:09;;;;;;;;;1.00;1.00;;;;;12.38;78.62;100745.34;5025894;28;45653;-82
2021/11/13 07:10:34;;;;;;;;;1.00;1.00;;;;;12.34;79.13;100752.63;5004843;28;46604;-80
2021/11/13 07:13:00;;;;;;;;;1.00;1.00;;;;;12.13;78.93;100714.84;5022708;28;45584;-78
2021/11/13 07:15:31;;;;;;;;;1.25;1.00;;;;;12.37;79.13;100744.50;5024245;28;45551;-80
2021/11/13 07:17:57;;;;;;;;;0.75;0.00;;;;;12.32;78.64;100751.06;5004689;28;46508;-84
2021/11/13 07:20:22;;;;;;;;;0.75;0.75;;;;;12.38;79.13;100764.56;5036441;28;45850;-80
2021/11/13 07:22:48;;;;;;;;;0.75;0.75;;;;;12.38;79.00;100772.44;5026667;28;45435;-81
2021/11/13 07:28:44;;;;;;;;;2.25;1.00;;;;;12.40;78.96;100783.69;5035912;28;45483;-80
2021/11/13 07:31:14;;;;;;;;;0.00;0.00;;;;;12.30;79.21;100764.31;5038304;28;45833;-79
2021/11/13 07:33:40;;;;;;;;;2.00;1.75;;;;;12.39;79.45;100774.13;5043173;28;44934;-84
2021/11/13 07:36:07;;;;;;;;;1.00;1.00;;;;;12.38;79.30;100779.50;5042692;28;45282;-87
2021/11/13 07:38:34;;;;;;;;;1.00;1.00;;;;;12.42;79.59;100791.44;5036071;28;45379;-88
2021/11/13 07:41:00;;;;;;;;;1.00;1.00;;;;;12.26;79.92;100775.16;5022598;28;45675;-83
2021/11/13 07:43:26;;;;;;;;;1.00;1.00;;;;;12.31;80.01;100794.88;5022833;28;45515;-85
2021/11/13 07:45:52;;;;;;;;;1.00;1.00;;;;;12.16;80.63;100778.47;5023155;28;45468;-85
2021/11/13 07:48:18;;;;;;;;;1.00;1.00;;;;;12.21;80.77;100783.38;5021078;28;46491;-85
2021/11/13 07:50:43;;;;;;;;;0.00;0.00;;;;;12.25;80.49;100799.78;5020716;28;45596;-88
2021/11/13 07:53:15;;;;;;;;;0.75;0.75;;;;;12.10;80.94;100771.06;5021377;28;45855;-89
2021/11/13 07:59:02;;;;;;;;;1.75;0.00;;;;;12.15;81.09;100783.84;5026196;28;45700;-85
2021/11/13 08:01:28;;;;;;;;;1.00;1.00;;;;;12.28;81.14;100807.41;5004889;28;47721;-87
2021/11/13 08:03:53;;;;;;;;;0.00;0.00;;;;;12.26;80.90;100812.78;5020239;28;45604;-87
2021/11/13 08:06:19;;;;;;;;;1.75;0.75;;;;;12.28;81.14;100808.25;5021467;28;45670;-83
2021/11/13 08:08:44;;;;;;;;;1.00;1.00;;;;;11.97;81.13;100757.19;5004532;28;46334;-85
2021/11/13 08:11:10;;;;;;;;;1.00;1.00;;;;;12.34;80.94;100813.03;5022687;28;46020;-83
2021/11/13 08:13:39;;;;;;;;;1.00;1.00;;;;;12.37;80.59;100818.06;5022099;28;45611;-86
2021/11/13 08:16:05;;;;;;;;;1.50;1.50;;;;;12.31;80.87;100800.13;5020417;28;45790;-83
2021/11/13 08:18:30;;;;;;;;;1.50;1.00;;;;;12.35;80.51;100803.38;5019383;28;46195;-82
2021/11/13 08:20:59;;;;;;;;;1.50;1.00;;;;;12.47;80.65;100823.47;5019731;28;45912;-79
2021/11/13 08:23:26;;;;;;;;;1.00;1.00;;;;;12.44;80.55;100806.16;5021065;28;45528;-79
2021/11/13 08:29:14;;;;;;;;;2.00;2.00;;;;;12.49;80.28;100808.41;5017798;28;45954;-88
2021/11/13 08:31:41;;;;;;;;;2.50;2.00;;;;;12.57;80.29;100822.66;5017903;28;46105;-81
2021/11/13 08:34:07;;;;;;;;;4.00;3.00;;;;;12.60;80.30;100818.94;5017426;28;45520;-86
2021/11/13 08:36:32;;;;;;;;;2.25;1.75;;;;;12.66;80.08;100817.66;5017243;28;45459;-83
2021/11/13 08:38:58;;;;;;;;;1.00;1.00;;;;;12.68;79.75;100811.34;5017493;28;45584;-81
2021/11/13 08:41:23;;;;;;;;;2.00;0.50;;;;;12.75;79.69;100816.94;5018383;28;45641;-83
2021/11/13 08:43:49;;;;;;;;;1.00;1.00;;;;;12.73;79.42;100827.59;5018215;28;45698;-79
2021/11/13 08:46:16;;;;;;;;;0.25;0.00;;;;;12.74;79.52;100825.81;5018222;28;45573;-83
2021/11/13 08:48:42;;;;;;;;;1.75;1.00;;;;;12.81;79.17;100821.72;5016763;28;46316;-81
2021/11/13 08:51:07;;;;;;;;;1.00;0.25;;;;;12.77;79.22;100823.78;5016007;28;46318;-76
2021/11/13 08:53:33;;;;;;;;;1.00;1.00;;;;;12.76;79.00;100808.94;5015220;28;45980;-75
2021/11/13 08:59:20;;;;;;;;;1.00;1.00;;;;;12.93;78.67;100836.56;5015179;28;45734;-77
2021/11/13 09:01:45;;;;;;;;;1.00;1.00;;;;;12.93;78.73;100831.31;5015089;28;47163;-74
2021/11/13 09:04:14;;;;;;;;;1.00;0.00;;;;;12.95;78.32;100848.66;5015003;28;45706;-76
2021/11/13 09:06:39;;;;;;;;;0.50;0.00;;;;;12.97;78.62;100830.94;5015089;28;45538;-75
2021/11/13 09:09:06;;;;;;;;;1.00;1.00;;;;;13.02;78.67;100835.84;5015450;28;46343;-74
2021/11/13 09:14:57;;;;;;;;;0.25;0.25;;;;;13.00;78.18;100822.84;5014904;28;45675;-75
2021/11/13 09:17:23;;;;;;;;;1.00;1.00;;;;;13.03;78.34;100822.59;5015427;28;45512;-74
2021/11/13 09:19:49;;;;;;;;;1.25;1.25;;;;;13.06;78.32;100824.16;5014925;28;46435;-75
2021/11/13 09:22:14;;;;;;;;;1.50;1.00;;;;;13.01;78.09;100821.84;5014926;28;47043;-76
2021/11/13 09:24:40;;;;;;;;;1.25;0.75;;;;;13.08;77.77;100829.28;5014689;28;45735;-75
2021/11/13 09:27:05;;;;;;;;;1.75;1.75;;;;;13.09;77.94;100839.69;5015074;28;45711;-75
2021/11/13 09:29:31;;;;;;;;;2.00;2.00;;;;;13.09;77.78;100834.44;5014831;28;46686;-76
2021/11/13 09:31:57;;;;;;;;;1.75;1.50;;;;;13.14;77.59;100834.94;5014371;28;46325;-75
2021/11/13 09:34:23;;;;;;;;;1.75;1.75;;;;;13.15;78.04;100831.34;5014642;28;45592;-75
2021/11/13 09:36:48;;;;;;;;;5.00;4.75;;;;;13.23;77.78;100825.47;5015015;28;45611;-77
2021/11/13 09:39:16;;;;;;;;;4.00;2.25;;;;;13.24;77.85;100835.03;5015078;28;46266;-75
2021/11/13 09:45:30;;;;;;;;;3.00;1.50;;;;;13.25;77.67;100850.72;5006950;28;45614;-77
2021/11/13 09:47:58;;;;;;;;;2.00;2.00;;;;;13.23;77.49;100847.34;5014625;28;45682;-75
2021/11/13 09:50:27;;;;;;;;;1.00;1.00;;;;;13.24;77.97;100848.19;4996311;28;47789;-76
2021/11/13 09:52:53;;;;;;;;;2.00;1.50;;;;;13.25;77.83;100837.56;5014283;28;47006;-74
2021/11/13 09:55:20;;;;;;;;;3.00;3.00;;;;;13.24;78.09;100833.25;5014422;28;45442;-77
2021/11/13 09:57:46;;;;;;;;;2.50;2.00;;;;;13.28;77.83;100839.94;5014346;28;45604;-82
2021/11/13 10:00:19;;;;;;;;;3.00;2.75;;;;;13.38;77.17;100848.81;4996954;28;46527;-80
2021/11/13 10:02:45;;;;;;;;;3.00;2.00;;;;;13.42;77.01;100850.22;5014391;28;46380;-77
2021/11/13 10:05:11;;;;;;;;;2.75;2.00;;;;;13.45;77.27;100857.03;5014363;28;45645;-74
2021/11/13 10:07:38;;;;;;;;;2.75;2.00;;;;;13.47;77.20;100849.88;5014558;28;45524;-77
2021/11/13 10:10:05;;;;;;;;;2.25;2.25;;;;;13.50;76.98;100862.78;5014307;28;46544;-80
2021/11/13 10:12:43;;;;;;;;;4.00;3.50;;;;;13.52;77.26;100866.13;5014287;28;46367;-74
2021/11/13 10:15:34;;;;;;;;;3.00;2.75;;;;;13.58;76.74;100870.06;5013983;28;46063;-76
2021/11/13 10:18:18;;;;;;;;;2.50;2.25;;;;;13.62;77.02;100858.34;5013894;28;45825;-75
2021/11/13 10:21:09;;;;;;;;;3.75;2.75;;;;;13.67;76.81;100867.53;5013970;28;45956;-77
2021/11/13 10:23:40;;;;;;;;;3.25;3.25;;;;;13.69;76.32;100862.16;5013422;28;46256;-76
2021/11/13 10:26:07;;;;;;;;;3.00;2.25;;;;;13.68;76.31;100858.69;4995935;28;45729;-74
2021/11/13 10:28:45;;;;;;;;;4.00;4.00;;;;;13.68;76.08;100863.94;5014060;28;45905;-74
2021/11/13 10:31:13;;;;;;;;;0.00;0.00;;;;;13.63;76.42;100842.41;5013967;28;46461;-76
2021/11/13 10:33:39;;;;;;;;;2.75;2.00;;;;;13.72;76.19;100854.84;5013719;28;47261;-74
2021/11/13 10:36:05;;;;;;;;;3.00;3.00;;;;;13.71;75.46;100855.78;5013962;28;45513;-75
2021/11/13 10:38:34;;;;;;;;;3.75;3.75;;;;;13.68;76.01;100850.78;5013800;28;45656;-74
2021/11/13 10:41:03;;;;;;;;;4.25;4.00;;;;;13.61;75.68;100844.31;5013706;28;45878;-75
2021/11/13 10:43:35;;;;;;;;;5.00;4.00;;;;;13.71;75.78;100850.53;5011323;28;46470;-76
2021/11/13 10:46:09;;;;;;;;;5.50;4.25;;;;;13.65;76.06;100837.88;5013381;28;45672;-75
2021/11/13 10:48:37;;;;;;;;;5.00;5.00;;;;;13.74;75.81;100842.41;5013909;28;45712;-76
2021/11/13 10:51:08;;;;;;;;;5.50;5.00;;;;;13.83;75.74;100846.91;5013251;28;46397;-76
2021/11/13 10:53:35;;;;;;;;;9.25;7.50;;;;;13.85;75.23;100854.69;5013702;28;46058;-78
2021/11/13 10:56:10;;;;;;;;;10.50;9.25;;;;;13.88;75.58;100860.53;5015538;28;45901;-76
2021/11/13 10:58:53;;;;;;;;;10.25;9.25;;;;;13.91;75.25;100866.53;5017034;28;45557;-76
2021/11/13 11:01:29;;;;;;;;;13.25;9.25;;;;;13.88;75.26;100857.91;5016697;28;46468;-74
2021/11/13 11:04:09;;;;;;;;;10.00;9.25;;;;;13.86;74.98;100851.94;5016799;28;45608;-75
2021/11/13 11:06:38;;;;;;;;;11.75;10.50;;;;;13.86;75.12;100861.66;5016743;28;45702;-78
2021/11/13 11:09:16;;;;;;;;;8.25;6.00;;;;;13.88;75.12;100846.53;5018822;28;45596;-77
2021/11/13 11:11:42;;;;;;;;;9.00;6.00;;;;;13.84;75.35;100845.97;4999567;28;48605;-76
2021/11/13 11:14:10;;;;;;;;;11.25;6.50;;;;;13.83;75.20;100830.28;4999468;28;46402;-77
2021/11/13 11:16:38;;;;;;;;;9.00;8.75;;;;;14.00;74.83;100845.56;4999110;28;45825;-77
2021/11/13 11:19:06;;;;;;;;;9.75;7.25;;;;;14.05;74.99;100842.53;5016566;28;45465;-76
2021/11/13 11:21:50;;;;;;;;;7.00;7.00;;;;;14.11;74.75;100842.88;5016760;28;45581;-77
2021/11/13 11:24:29;;;;;;;;;7.00;6.25;;;;;14.08;74.32;100829.97;5016131;28;46115;-81
2021/11/13 11:27:07;;;;;;;;;9.50;8.00;;;;;14.21;74.57;100827.97;4999762;28;45525;-81
2021/11/13 11:29:42;;;;;;;;;6.75;5.75;;;;;14.15;73.84;100817.94;4999306;28;45541;-78
2021/11/13 11:32:09;;;;;;;;;5.50;5.00;;;;;14.23;73.81;100830.50;4983217;28;47503;-78
2021/11/13 11:34:38;;;;;;;;;7.50;6.00;;;;;14.23;73.80;100828.69;5016948;28;46255;-80
2021/11/13 11:37:11;;;;;;;;;5.50;3.75;;;;;14.25;73.74;100823.31;4998960;28;45699;-77
2021/11/13 11:39:37;;;;;;;;;5.75;5.25;;;;;14.20;73.45;100826.28;5016702;28;45665;-79
2021/11/13 11:42:03;;;;;;;;;6.00;4.00;;;;;14.21;73.51;100835.03;4998390;28;46294;-79
2021/11/13 11:44:29;;;;;;;;;5.25;4.25;;;;;14.23;73.62;100828.69;4994755;28;46984;-79
2021/11/13 11:46:59;;;;;;;;;5.25;4.75;;;;;14.26;73.30;100825.78;4996415;28;45651;-81
2021/11/13 11:49:25;;;;;;;;;5.00;3.50;;;;;14.19;72.94;100816.75;4996347;28;45929;-75
2021/11/13 11:51:51;;;;;;;;;5.00;5.00;;;;;14.20;73.33;100823.66;4996347;28;45617;-76
2021/11/13 11:54:17;;;;;;;;;5.00;5.00;;;;;14.19;73.42;100819.38;4996280;28;46231;-75
2021/11/13 11:56:43;;;;;;;;;7.00;6.50;;;;;14.18;73.05;100817.69;4996149;28;45642;-75
2021/11/13 11:59:09;;;;;;;;;7.25;7.25;;;;;14.26;72.98;100824.94;4996333;28;45719;-75
2021/11/13 12:01:38;;;;;;;;;7.00;6.00;;;;;14.30;72.49;100819.28;4996637;28;46827;-78
2021/11/13 12:04:16;;;;;;;;;5.25;5.00;;;;;14.34;72.46;100825.16;4996120;28;46463;-78
2021/11/13 12:06:48;;;;;;;;;5.75;5.75;;;;;14.36;72.07;100827.69;4995331;28;45775;-75
2021/11/13 12:09:14;;;;;;;;;6.00;6.00;;;;;14.32;72.12;100823.59;4996142;28;45564;-76
2021/11/13 12:11:42;;;;;;;;;5.50;5.00;;;;;14.30;72.25;100829.84;4996134;28;46402;-75
2021/11/13 12:14:41;;;;;;;;;5.25;5.00;;;;;14.30;71.96;100823.75;4995760;28;46253;-75
2021/11/13 12:17:26;;;;;;;;;5.00;5.00;;;;;14.32;72.03;100816.53;4996382;28;45846;-80
2021/11/13 12:20:23;;;;;;;;;4.25;4.00;;;;;14.39;71.76;100811.63;4996543;28;45639;-76
2021/11/13 12:23:23;;;;;;;;;5.00;4.00;;;;;14.43;71.56;100813.88;4995706;28;46467;-80
2021/11/13 12:25:56;;;;;;;;;3.00;2.00;;;;;14.38;70.59;100813.44;4954667;28;45954;-79
2021/11/13 12:28:23;;;;;;;;;4.75;3.00;;;;;14.36;70.92;100819.78;4954589;28;45777;-75
2021/11/13 12:31:08;;;;;;;;;2.75;2.75;;;;;14.36;70.62;100836.41;4955857;28;45870;-85
2021/11/13 12:33:34;;;;;;;;;2.00;1.00;;;;;14.35;70.44;100833.91;4939288;28;48611;-80